UPSVAC Airport Information Service

Marseille Provence Airport

ICAO: LFML Country: France
Latitude: 43.4367 Longitude: 5.215
Latest Arrival : UPSE121 (EDDK-LFML) Latest Departure : UPSE182 (LFML-EDDK)


WX CaptureLIVE
Data provided by noaa.gov | Fetched at 13:40:23

METAR : LFML 141300Z AUTO 26008KT CAVOK 16/07 Q1019 TEMPO 19010KT SCT045TCU

TAF : LFML 140800Z 1409/1515 VRB03KT CAVOK TX16/1413Z TN04/1503Z TEMPO 1410/1413 28010KT TEMPO 1413/1416 -SHRA SCT045TCU TEMPO 1413/1418 19010KT BECMG 1418/1421 34010KT BECMG 1501/1503 VRB03KT BECMG 1512/1514 19012KT PROB40 TEMPO 1512/1515 -SHRA SCT045TCU


Runway Data for LFML
Data provided by openaviationdata.com

Runway ID Mag Var Hdg Length Elevation Surface ILS Freq ILS Id ILS Slope
13L -1 135° 11485 ft 10 ft Concrete 110.3 ML 3
13R -1 135° 7784 ft 10 ft Concrete 108.3 MCE 0
31L -1 315° 7784 ft 10 ft Concrete -- -- --
31R -1 315° 11485 ft 10 ft Concrete 111.15 MPV 4

Marseille Provence Airport, France
Use only for reference purposes



Not for navigational purposes.